sensor_id;sensor_type;location;lat;lon;timestamp;temperature;humidity
736;DHT22;352;48.626;9.238;2023-04-28T00:00:03;12.10;99.90
736;DHT22;352;48.626;9.238;2023-04-28T00:02:30;12.00;99.90
736;DHT22;352;48.626;9.238;2023-04-28T00:04:58;12.00;99.90
736;DHT22;352;48.626;9.238;2023-04-28T00:07:25;12.00;99.90
736;DHT22;352;48.626;9.238;2023-04-28T00:09:52;12.00;99.90
736;DHT22;352;48.626;9.238;2023-04-28T00:12:20;11.90;99.90
736;DHT22;352;48.626;9.238;2023-04-28T00:14:46;11.80;99.90
736;DHT22;352;48.626;9.238;2023-04-28T00:17:13;11.80;99.90
736;DHT22;352;48.626;9.238;2023-04-28T00:19:40;11.80;99.90
736;DHT22;352;48.626;9.238;2023-04-28T00:22:07;11.80;99.90
736;DHT22;352;48.626;9.238;2023-04-28T00:24:33;11.90;99.90
736;DHT22;352;48.626;9.238;2023-04-28T00:27:01;11.90;99.90
736;DHT22;352;48.626;9.238;2023-04-28T00:29:29;12.00;99.90
736;DHT22;352;48.626;9.238;2023-04-28T00:31:56;12.00;99.90
736;DHT22;352;48.626;9.238;2023-04-28T00:34:22;12.00;99.90
736;DHT22;352;48.626;9.238;2023-04-28T00:36:49;12.00;99.90
736;DHT22;352;48.626;9.238;2023-04-28T00:39:16;12.00;99.90
736;DHT22;352;48.626;9.238;2023-04-28T00:41:43;12.00;99.90
736;DHT22;352;48.626;9.238;2023-04-28T00:44:09;11.90;99.90
736;DHT22;352;48.626;9.238;2023-04-28T00:46:38;11.90;99.90
736;DHT22;352;48.626;9.238;2023-04-28T00:49:04;12.00;99.90
736;DHT22;352;48.626;9.238;2023-04-28T00:51:31;12.00;99.90
736;DHT22;352;48.626;9.238;2023-04-28T00:53:58;12.00;99.90
736;DHT22;352;48.626;9.238;2023-04-28T00:56:25;12.00;99.90
736;DHT22;352;48.626;9.238;2023-04-28T00:58:53;12.00;99.90
736;DHT22;352;48.626;9.238;2023-04-28T01:01:19;12.00;99.90
736;DHT22;352;48.626;9.238;2023-04-28T01:03:48;12.00;99.90
736;DHT22;352;48.626;9.238;2023-04-28T01:06:15;12.00;99.90
736;DHT22;352;48.626;9.238;2023-04-28T01:08:42;12.00;99.90
736;DHT22;352;48.626;9.238;2023-04-28T01:11:13;12.10;99.90
736;DHT22;352;48.626;9.238;2023-04-28T01:13:40;12.10;99.90
736;DHT22;352;48.626;9.238;2023-04-28T01:16:06;12.10;99.90
736;DHT22;352;48.626;9.238;2023-04-28T01:21:56;12.10;99.90
736;DHT22;352;48.626;9.238;2023-04-28T01:24:25;12.10;99.90
736;DHT22;352;48.626;9.238;2023-04-28T01:26:51;12.10;99.90
736;DHT22;352;48.626;9.238;2023-04-28T01:29:18;12.10;99.90
736;DHT22;352;48.626;9.238;2023-04-28T01:31:45;12.10;99.90
736;DHT22;352;48.626;9.238;2023-04-28T01:34:11;12.10;99.90
736;DHT22;352;48.626;9.238;2023-04-28T01:36:38;12.10;99.90
736;DHT22;352;48.626;9.238;2023-04-28T01:39:05;12.20;99.90
736;DHT22;352;48.626;9.238;2023-04-28T01:41:33;12.20;99.90
736;DHT22;352;48.626;9.238;2023-04-28T01:44:00;12.10;99.90
736;DHT22;352;48.626;9.238;2023-04-28T01:46:27;12.20;99.90
736;DHT22;352;48.626;9.238;2023-04-28T01:48:53;12.20;99.90
736;DHT22;352;48.626;9.238;2023-04-28T01:51:20;12.20;99.90
736;DHT22;352;48.626;9.238;2023-04-28T01:53:47;12.20;99.90
736;DHT22;352;48.626;9.238;2023-04-28T01:56:14;12.20;99.90
736;DHT22;352;48.626;9.238;2023-04-28T01:58:42;12.10;99.90
736;DHT22;352;48.626;9.238;2023-04-28T02:01:08;12.10;99.90
736;DHT22;352;48.626;9.238;2023-04-28T02:03:36;12.10;99.90
736;DHT22;352;48.626;9.238;2023-04-28T02:06:03;12.10;99.90
736;DHT22;352;48.626;9.238;2023-04-28T02:08:30;12.00;99.90
736;DHT22;352;48.626;9.238;2023-04-28T02:10:57;12.10;99.90
736;DHT22;352;48.626;9.238;2023-04-28T02:13:25;12.10;99.90
736;DHT22;352;48.626;9.238;2023-04-28T02:15:53;12.10;99.90
736;DHT22;352;48.626;9.238;2023-04-28T02:18:20;12.10;99.90
736;DHT22;352;48.626;9.238;2023-04-28T02:20:47;12.10;99.90
736;DHT22;352;48.626;9.238;2023-04-28T02:23:14;12.10;99.90
736;DHT22;352;48.626;9.238;2023-04-28T02:25:40;12.10;99.90
736;DHT22;352;48.626;9.238;2023-04-28T02:28:07;12.10;99.90
736;DHT22;352;48.626;9.238;2023-04-28T02:30:34;12.20;99.90
736;DHT22;352;48.626;9.238;2023-04-28T02:33:02;12.20;99.90
736;DHT22;352;48.626;9.238;2023-04-28T02:35:28;12.20;99.90
736;DHT22;352;48.626;9.238;2023-04-28T02:37:55;12.10;99.90
736;DHT22;352;48.626;9.238;2023-04-28T02:40:22;12.10;99.90
736;DHT22;352;48.626;9.238;2023-04-28T02:42:48;12.20;99.90
736;DHT22;352;48.626;9.238;2023-04-28T02:45:15;12.20;99.90
736;DHT22;352;48.626;9.238;2023-04-28T02:47:42;12.20;99.90
736;DHT22;352;48.626;9.238;2023-04-28T02:53:32;12.20;99.90
736;DHT22;352;48.626;9.238;2023-04-28T02:55:59;12.20;99.90
736;DHT22;352;48.626;9.238;2023-04-28T02:58:26;12.20;99.90
736;DHT22;352;48.626;9.238;2023-04-28T03:00:53;12.20;99.90
736;DHT22;352;48.626;9.238;2023-04-28T03:03:19;12.20;99.90
736;DHT22;352;48.626;9.238;2023-04-28T03:05:46;12.20;99.90
736;DHT22;352;48.626;9.238;2023-04-28T03:08:13;12.20;99.90
736;DHT22;352;48.626;9.238;2023-04-28T03:10:41;12.20;99.90
736;DHT22;352;48.626;9.238;2023-04-28T03:13:08;12.20;99.90
736;DHT22;352;48.626;9.238;2023-04-28T03:15:34;12.20;99.90
736;DHT22;352;48.626;9.238;2023-04-28T03:18:01;12.20;99.90
736;DHT22;352;48.626;9.238;2023-04-28T03:20:28;12.20;99.90
736;DHT22;352;48.626;9.238;2023-04-28T03:22:54;12.20;99.90
736;DHT22;352;48.626;9.238;2023-04-28T03:25:21;12.20;99.90
736;DHT22;352;48.626;9.238;2023-04-28T03:27:49;12.20;99.90
736;DHT22;352;48.626;9.238;2023-04-28T03:30:16;12.20;99.90
736;DHT22;352;48.626;9.238;2023-04-28T03:32:42;12.20;99.90
736;DHT22;352;48.626;9.238;2023-04-28T03:35:09;12.20;99.90
736;DHT22;352;48.626;9.238;2023-04-28T03:37:36;12.30;99.90
736;DHT22;352;48.626;9.238;2023-04-28T03:40:03;12.30;99.90
736;DHT22;352;48.626;9.238;2023-04-28T03:42:30;12.30;99.90
736;DHT22;352;48.626;9.238;2023-04-28T03:44:58;12.30;99.90
736;DHT22;352;48.626;9.238;2023-04-28T03:47:25;12.30;99.90
736;DHT22;352;48.626;9.238;2023-04-28T03:49:52;12.30;99.90
736;DHT22;352;48.626;9.238;2023-04-28T03:52:19;12.30;99.90
736;DHT22;352;48.626;9.238;2023-04-28T03:54:46;12.30;99.90
736;DHT22;352;48.626;9.238;2023-04-28T03:57:12;12.40;99.90
736;DHT22;352;48.626;9.238;2023-04-28T03:59:39;12.40;99.90
736;DHT22;352;48.626;9.238;2023-04-28T04:02:08;12.40;99.90
736;DHT22;352;48.626;9.238;2023-04-28T04:04:34;12.40;99.90
736;DHT22;352;48.626;9.238;2023-04-28T04:07:01;12.40;99.90
736;DHT22;352;48.626;9.238;2023-04-28T04:09:28;12.30;99.90
736;DHT22;352;48.626;9.238;2023-04-28T04:11:55;12.20;99.90
736;DHT22;352;48.626;9.238;2023-04-28T04:14:22;12.20;99.90
736;DHT22;352;48.626;9.238;2023-04-28T04:16:48;12.20;99.90
736;DHT22;352;48.626;9.238;2023-04-28T04:19:16;12.20;99.90
736;DHT22;352;48.626;9.238;2023-04-28T04:21:43;12.20;99.90
736;DHT22;352;48.626;9.238;2023-04-28T04:24:10;12.20;99.90
736;DHT22;352;48.626;9.238;2023-04-28T04:26:36;12.20;99.90
736;DHT22;352;48.626;9.238;2023-04-28T04:29:03;12.10;99.90
736;DHT22;352;48.626;9.238;2023-04-28T04:31:30;12.10;99.90
736;DHT22;352;48.626;9.238;2023-04-28T04:33:57;12.10;99.90
736;DHT22;352;48.626;9.238;2023-04-28T04:36:25;12.10;99.90
736;DHT22;352;48.626;9.238;2023-04-28T04:38:52;12.10;99.90
736;DHT22;352;48.626;9.238;2023-04-28T04:41:19;12.20;99.90
736;DHT22;352;48.626;9.238;2023-04-28T04:43:46;12.20;99.90
736;DHT22;352;48.626;9.238;2023-04-28T04:46:13;12.30;99.90
736;DHT22;352;48.626;9.238;2023-04-28T04:48:39;12.30;99.90
736;DHT22;352;48.626;9.238;2023-04-28T04:51:06;12.30;99.90
736;DHT22;352;48.626;9.238;2023-04-28T04:53:34;12.30;99.90
736;DHT22;352;48.626;9.238;2023-04-28T04:56:01;12.30;99.90
736;DHT22;352;48.626;9.238;2023-04-28T04:58:28;12.40;99.90
736;DHT22;352;48.626;9.238;2023-04-28T05:00:55;12.40;99.90
736;DHT22;352;48.626;9.238;2023-04-28T05:03:22;12.40;99.90
736;DHT22;352;48.626;9.238;2023-04-28T05:05:49;12.50;99.90
736;DHT22;352;48.626;9.238;2023-04-28T05:08:15;12.50;99.90
736;DHT22;352;48.626;9.238;2023-04-28T05:10:44;12.60;99.90
736;DHT22;352;48.626;9.238;2023-04-28T05:13:10;12.70;99.90
736;DHT22;352;48.626;9.238;2023-04-28T05:15:37;12.60;99.90
736;DHT22;352;48.626;9.238;2023-04-28T05:18:04;12.70;99.90
736;DHT22;352;48.626;9.238;2023-04-28T05:20:35;12.60;99.90
736;DHT22;352;48.626;9.238;2023-04-28T05:23:02;12.60;99.90
736;DHT22;352;48.626;9.238;2023-04-28T05:25:28;12.70;99.90
736;DHT22;352;48.626;9.238;2023-04-28T05:27:56;12.70;99.90
736;DHT22;352;48.626;9.238;2023-04-28T05:30:23;12.70;99.90
736;DHT22;352;48.626;9.238;2023-04-28T05:32:50;12.70;99.90
736;DHT22;352;48.626;9.238;2023-04-28T05:35:17;12.70;99.90
736;DHT22;352;48.626;9.238;2023-04-28T05:37:44;12.70;99.90
736;DHT22;352;48.626;9.238;2023-04-28T05:40:11;12.70;99.90
736;DHT22;352;48.626;9.238;2023-04-28T05:42:38;12.80;99.90
736;DHT22;352;48.626;9.238;2023-04-28T05:45:08;12.80;99.90
736;DHT22;352;48.626;9.238;2023-04-28T05:47:34;12.80;99.90
736;DHT22;352;48.626;9.238;2023-04-28T05:50:01;12.80;99.90
736;DHT22;352;48.626;9.238;2023-04-28T05:52:28;12.80;99.90
736;DHT22;352;48.626;9.238;2023-04-28T05:54:55;12.80;99.90
736;DHT22;352;48.626;9.238;2023-04-28T05:57:22;12.80;99.90
736;DHT22;352;48.626;9.238;2023-04-28T05:59:48;12.80;99.90
736;DHT22;352;48.626;9.238;2023-04-28T06:02:16;12.80;99.90
736;DHT22;352;48.626;9.238;2023-04-28T06:04:43;12.80;99.90
736;DHT22;352;48.626;9.238;2023-04-28T06:07:10;12.80;99.90
736;DHT22;352;48.626;9.238;2023-04-28T06:09:36;12.80;99.90
736;DHT22;352;48.626;9.238;2023-04-28T06:12:04;12.80;99.90
736;DHT22;352;48.626;9.238;2023-04-28T06:14:31;12.80;99.90
736;DHT22;352;48.626;9.238;2023-04-28T06:16:57;12.80;99.90
736;DHT22;352;48.626;9.238;2023-04-28T06:19:26;12.70;99.90
736;DHT22;352;48.626;9.238;2023-04-28T06:21:52;12.70;99.90
736;DHT22;352;48.626;9.238;2023-04-28T06:24:19;12.70;99.90
736;DHT22;352;48.626;9.238;2023-04-28T06:26:46;12.70;99.90
736;DHT22;352;48.626;9.238;2023-04-28T06:29:13;12.60;99.90
736;DHT22;352;48.626;9.238;2023-04-28T06:31:39;12.60;99.90
736;DHT22;352;48.626;9.238;2023-04-28T06:34:06;12.70;99.90
736;DHT22;352;48.626;9.238;2023-04-28T06:36:34;12.80;99.90
736;DHT22;352;48.626;9.238;2023-04-28T06:39:01;12.80;99.90
736;DHT22;352;48.626;9.238;2023-04-28T06:41:28;12.80;99.90
736;DHT22;352;48.626;9.238;2023-04-28T06:43:54;12.90;99.90
736;DHT22;352;48.626;9.238;2023-04-28T06:46:21;12.90;99.90
736;DHT22;352;48.626;9.238;2023-04-28T06:48:48;13.00;99.90
736;DHT22;352;48.626;9.238;2023-04-28T06:51:15;13.00;99.90
736;DHT22;352;48.626;9.238;2023-04-28T06:53:43;13.00;99.90
736;DHT22;352;48.626;9.238;2023-04-28T06:56:10;13.00;99.90
736;DHT22;352;48.626;9.238;2023-04-28T06:58:37;13.00;99.90
736;DHT22;352;48.626;9.238;2023-04-28T07:01:04;13.00;99.90
736;DHT22;352;48.626;9.238;2023-04-28T07:03:31;12.90;99.90
736;DHT22;352;48.626;9.238;2023-04-28T07:05:57;12.90;99.90
736;DHT22;352;48.626;9.238;2023-04-28T07:08:24;12.90;99.90
736;DHT22;352;48.626;9.238;2023-04-28T07:10:53;13.00;99.90
736;DHT22;352;48.626;9.238;2023-04-28T07:13:20;13.00;99.90
736;DHT22;352;48.626;9.238;2023-04-28T07:15:47;13.00;99.90
736;DHT22;352;48.626;9.238;2023-04-28T07:18:13;13.10;99.90
736;DHT22;352;48.626;9.238;2023-04-28T07:20:40;13.10;99.90
736;DHT22;352;48.626;9.238;2023-04-28T07:23:07;13.20;99.90
736;DHT22;352;48.626;9.238;2023-04-28T07:25:36;13.20;99.90
736;DHT22;352;48.626;9.238;2023-04-28T07:28:06;13.30;99.90
736;DHT22;352;48.626;9.238;2023-04-28T07:30:34;13.30;99.90
736;DHT22;352;48.626;9.238;2023-04-28T07:33:01;13.40;99.90
736;DHT22;352;48.626;9.238;2023-04-28T07:35:28;13.50;99.90
736;DHT22;352;48.626;9.238;2023-04-28T07:37:55;13.60;99.90
736;DHT22;352;48.626;9.238;2023-04-28T07:40:22;13.60;99.90
736;DHT22;352;48.626;9.238;2023-04-28T07:42:49;13.60;99.90
736;DHT22;352;48.626;9.238;2023-04-28T07:45:17;13.70;99.90
736;DHT22;352;48.626;9.238;2023-04-28T07:47:44;13.70;99.90
736;DHT22;352;48.626;9.238;2023-04-28T07:50:11;13.70;99.90
736;DHT22;352;48.626;9.238;2023-04-28T07:52:38;13.80;99.90
736;DHT22;352;48.626;9.238;2023-04-28T07:55:05;13.80;99.90
736;DHT22;352;48.626;9.238;2023-04-28T07:57:32;13.80;99.90
736;DHT22;352;48.626;9.238;2023-04-28T07:59:59;13.90;99.90
736;DHT22;352;48.626;9.238;2023-04-28T08:02:27;13.90;99.90
736;DHT22;352;48.626;9.238;2023-04-28T08:04:54;14.00;99.90
736;DHT22;352;48.626;9.238;2023-04-28T08:07:21;14.00;99.90
736;DHT22;352;48.626;9.238;2023-04-28T08:09:48;14.00;99.90
736;DHT22;352;48.626;9.238;2023-04-28T08:12:15;14.00;99.90
736;DHT22;352;48.626;9.238;2023-04-28T08:14:42;14.10;99.90
736;DHT22;352;48.626;9.238;2023-04-28T08:17:09;14.10;99.90
736;DHT22;352;48.626;9.238;2023-04-28T08:19:37;14.10;99.90
736;DHT22;352;48.626;9.238;2023-04-28T08:22:04;14.10;99.90
736;DHT22;352;48.626;9.238;2023-04-28T08:24:31;14.10;99.90
736;DHT22;352;48.626;9.238;2023-04-28T08:27:00;14.10;99.90
736;DHT22;352;48.626;9.238;2023-04-28T08:29:27;14.10;99.90
736;DHT22;352;48.626;9.238;2023-04-28T08:31:54;14.10;99.90
736;DHT22;352;48.626;9.238;2023-04-28T08:34:21;14.10;99.90
736;DHT22;352;48.626;9.238;2023-04-28T08:36:50;14.10;99.90
736;DHT22;352;48.626;9.238;2023-04-28T08:39:16;14.10;99.90
736;DHT22;352;48.626;9.238;2023-04-28T08:41:44;14.10;99.90
736;DHT22;352;48.626;9.238;2023-04-28T08:44:11;14.10;99.90
736;DHT22;352;48.626;9.238;2023-04-28T08:46:39;14.20;99.90
736;DHT22;352;48.626;9.238;2023-04-28T08:49:11;14.20;99.90
736;DHT22;352;48.626;9.238;2023-04-28T08:51:44;14.30;99.90
736;DHT22;352;48.626;9.238;2023-04-28T08:54:14;14.30;99.90
736;DHT22;352;48.626;9.238;2023-04-28T08:56:42;14.40;99.90
736;DHT22;352;48.626;9.238;2023-04-28T08:59:10;14.50;99.90
736;DHT22;352;48.626;9.238;2023-04-28T09:01:37;14.50;99.90
736;DHT22;352;48.626;9.238;2023-04-28T09:04:04;14.50;99.90
736;DHT22;352;48.626;9.238;2023-04-28T09:06:32;14.60;99.90
736;DHT22;352;48.626;9.238;2023-04-28T09:09:19;14.70;99.90
736;DHT22;352;48.626;9.238;2023-04-28T09:11:50;14.70;99.90
736;DHT22;352;48.626;9.238;2023-04-28T09:14:17;14.80;99.90
736;DHT22;352;48.626;9.238;2023-04-28T09:16:44;14.80;99.90
736;DHT22;352;48.626;9.238;2023-04-28T09:19:11;14.90;99.90
736;DHT22;352;48.626;9.238;2023-04-28T09:21:45;14.90;99.90
736;DHT22;352;48.626;9.238;2023-04-28T09:24:26;15.00;99.90
736;DHT22;352;48.626;9.238;2023-04-28T09:26:53;15.10;99.90
736;DHT22;352;48.626;9.238;2023-04-28T09:29:20;15.10;99.90
736;DHT22;352;48.626;9.238;2023-04-28T09:31:47;15.10;99.90
736;DHT22;352;48.626;9.238;2023-04-28T09:34:13;15.20;99.90
736;DHT22;352;48.626;9.238;2023-04-28T09:36:40;15.20;99.90
736;DHT22;352;48.626;9.238;2023-04-28T09:39:07;15.30;99.90
736;DHT22;352;48.626;9.238;2023-04-28T09:41:36;15.30;99.90
736;DHT22;352;48.626;9.238;2023-04-28T09:44:11;15.40;99.90
736;DHT22;352;48.626;9.238;2023-04-28T09:46:38;15.40;99.90
736;DHT22;352;48.626;9.238;2023-04-28T09:49:05;15.40;99.90
736;DHT22;352;48.626;9.238;2023-04-28T09:51:33;15.50;99.90
736;DHT22;352;48.626;9.238;2023-04-28T09:54:01;15.60;99.90
736;DHT22;352;48.626;9.238;2023-04-28T09:56:29;15.70;99.90
736;DHT22;352;48.626;9.238;2023-04-28T09:58:58;15.70;99.90
736;DHT22;352;48.626;9.238;2023-04-28T10:01:26;15.80;99.90
736;DHT22;352;48.626;9.238;2023-04-28T10:03:55;15.90;99.90
736;DHT22;352;48.626;9.238;2023-04-28T10:06:22;15.90;99.90
736;DHT22;352;48.626;9.238;2023-04-28T10:08:50;16.00;99.90
736;DHT22;352;48.626;9.238;2023-04-28T10:11:17;16.10;99.90
736;DHT22;352;48.626;9.238;2023-04-28T10:13:45;16.20;99.90
736;DHT22;352;48.626;9.238;2023-04-28T10:16:13;16.30;99.90
736;DHT22;352;48.626;9.238;2023-04-28T10:18:40;16.40;99.90
736;DHT22;352;48.626;9.238;2023-04-28T10:21:08;16.60;99.90
736;DHT22;352;48.626;9.238;2023-04-28T10:23:48;16.70;99.90
736;DHT22;352;48.626;9.238;2023-04-28T10:26:18;16.80;99.90
736;DHT22;352;48.626;9.238;2023-04-28T10:28:46;16.80;99.90
736;DHT22;352;48.626;9.238;2023-04-28T10:31:16;16.90;99.90
736;DHT22;352;48.626;9.238;2023-04-28T10:33:45;16.90;99.90
736;DHT22;352;48.626;9.238;2023-04-28T10:36:47;16.90;99.90
736;DHT22;352;48.626;9.238;2023-04-28T10:39:15;16.90;99.90
736;DHT22;352;48.626;9.238;2023-04-28T10:41:42;16.90;99.90
736;DHT22;352;48.626;9.238;2023-04-28T10:44:41;16.90;99.90
736;DHT22;352;48.626;9.238;2023-04-28T10:47:10;16.90;99.90
736;DHT22;352;48.626;9.238;2023-04-28T10:50:06;17.00;99.90
736;DHT22;352;48.626;9.238;2023-04-28T10:52:48;17.10;99.90
736;DHT22;352;48.626;9.238;2023-04-28T10:55:34;17.10;99.90
736;DHT22;352;48.626;9.238;2023-04-28T10:58:29;17.20;99.90
736;DHT22;352;48.626;9.238;2023-04-28T11:01:23;17.30;99.90
736;DHT22;352;48.626;9.238;2023-04-28T11:03:52;17.40;99.90
736;DHT22;352;48.626;9.238;2023-04-28T11:06:25;17.50;99.90
736;DHT22;352;48.626;9.238;2023-04-28T11:08:53;17.50;99.90
736;DHT22;352;48.626;9.238;2023-04-28T11:11:22;17.60;99.90
736;DHT22;352;48.626;9.238;2023-04-28T11:13:51;17.80;99.90
736;DHT22;352;48.626;9.238;2023-04-28T11:16:20;18.00;99.90
736;DHT22;352;48.626;9.238;2023-04-28T11:18:54;18.10;99.90
736;DHT22;352;48.626;9.238;2023-04-28T11:21:22;18.20;99.90
736;DHT22;352;48.626;9.238;2023-04-28T11:23:49;18.30;99.90
736;DHT22;352;48.626;9.238;2023-04-28T11:26:17;18.30;99.90
736;DHT22;352;48.626;9.238;2023-04-28T11:28:48;18.30;99.90
736;DHT22;352;48.626;9.238;2023-04-28T11:31:16;18.20;99.90
736;DHT22;352;48.626;9.238;2023-04-28T11:33:47;18.10;99.90
736;DHT22;352;48.626;9.238;2023-04-28T11:36:23;18.10;99.90
736;DHT22;352;48.626;9.238;2023-04-28T11:38:51;18.00;99.90
736;DHT22;352;48.626;9.238;2023-04-28T11:41:17;18.00;99.90
736;DHT22;352;48.626;9.238;2023-04-28T11:43:44;17.90;99.90
736;DHT22;352;48.626;9.238;2023-04-28T11:46:15;17.90;99.90
736;DHT22;352;48.626;9.238;2023-04-28T11:48:42;18.00;99.90
736;DHT22;352;48.626;9.238;2023-04-28T11:51:09;18.00;99.90
736;DHT22;352;48.626;9.238;2023-04-28T11:53:43;18.20;99.90
736;DHT22;352;48.626;9.238;2023-04-28T11:56:10;18.30;99.90
736;DHT22;352;48.626;9.238;2023-04-28T11:58:38;18.40;99.90
736;DHT22;352;48.626;9.238;2023-04-28T12:01:08;18.50;99.90
736;DHT22;352;48.626;9.238;2023-04-28T12:03:42;18.50;99.90
736;DHT22;352;48.626;9.238;2023-04-28T12:06:09;18.60;99.90
736;DHT22;352;48.626;9.238;2023-04-28T12:08:36;18.60;99.90
736;DHT22;352;48.626;9.238;2023-04-28T12:11:11;18.60;99.90
736;DHT22;352;48.626;9.238;2023-04-28T12:13:38;18.60;99.90
736;DHT22;352;48.626;9.238;2023-04-28T12:16:06;18.60;99.90
736;DHT22;352;48.626;9.238;2023-04-28T12:18:34;18.60;99.90
736;DHT22;352;48.626;9.238;2023-04-28T12:21:02;18.50;99.90
736;DHT22;352;48.626;9.238;2023-04-28T12:23:29;18.50;99.90
736;DHT22;352;48.626;9.238;2023-04-28T12:25:56;18.40;99.90
736;DHT22;352;48.626;9.238;2023-04-28T12:28:35;18.30;99.90
736;DHT22;352;48.626;9.238;2023-04-28T12:31:04;18.30;99.90
736;DHT22;352;48.626;9.238;2023-04-28T12:33:32;18.20;99.90
736;DHT22;352;48.626;9.238;2023-04-28T12:36:03;18.20;99.90
736;DHT22;352;48.626;9.238;2023-04-28T12:38:30;18.20;99.90
736;DHT22;352;48.626;9.238;2023-04-28T12:40:57;18.20;99.90
736;DHT22;352;48.626;9.238;2023-04-28T12:43:26;18.30;99.90
736;DHT22;352;48.626;9.238;2023-04-28T12:45:54;18.40;99.90
736;DHT22;352;48.626;9.238;2023-04-28T12:48:21;18.60;99.90
736;DHT22;352;48.626;9.238;2023-04-28T12:50:49;18.70;99.90
736;DHT22;352;48.626;9.238;2023-04-28T12:53:16;18.80;99.90
736;DHT22;352;48.626;9.238;2023-04-28T12:55:43;18.90;99.90
736;DHT22;352;48.626;9.238;2023-04-28T12:58:09;18.90;99.90
736;DHT22;352;48.626;9.238;2023-04-28T13:00:37;18.90;99.90
736;DHT22;352;48.626;9.238;2023-04-28T13:03:06;19.00;99.90
736;DHT22;352;48.626;9.238;2023-04-28T13:05:32;19.00;99.90
736;DHT22;352;48.626;9.238;2023-04-28T13:07:59;19.10;99.90
736;DHT22;352;48.626;9.238;2023-04-28T13:10:26;19.10;99.90
736;DHT22;352;48.626;9.238;2023-04-28T13:12:54;19.20;99.90
736;DHT22;352;48.626;9.238;2023-04-28T13:15:20;19.30;99.90
736;DHT22;352;48.626;9.238;2023-04-28T13:17:48;19.30;99.90
736;DHT22;352;48.626;9.238;2023-04-28T13:20:15;19.30;99.90
736;DHT22;352;48.626;9.238;2023-04-28T13:22:42;19.30;99.90
736;DHT22;352;48.626;9.238;2023-04-28T13:25:09;19.30;99.90
736;DHT22;352;48.626;9.238;2023-04-28T13:27:36;19.30;99.90
736;DHT22;352;48.626;9.238;2023-04-28T13:30:03;19.30;99.90
736;DHT22;352;48.626;9.238;2023-04-28T13:32:30;19.40;99.90
736;DHT22;352;48.626;9.238;2023-04-28T13:34:59;19.30;99.90
736;DHT22;352;48.626;9.238;2023-04-28T13:37:25;19.30;99.90
736;DHT22;352;48.626;9.238;2023-04-28T13:39:52;19.30;99.90
736;DHT22;352;48.626;9.238;2023-04-28T13:42:19;19.20;99.90
736;DHT22;352;48.626;9.238;2023-04-28T13:44:46;19.20;99.90
736;DHT22;352;48.626;9.238;2023-04-28T13:47:13;19.20;99.90
736;DHT22;352;48.626;9.238;2023-04-28T13:49:40;19.10;99.90
736;DHT22;352;48.626;9.238;2023-04-28T13:52:09;19.00;99.90
736;DHT22;352;48.626;9.238;2023-04-28T13:54:35;19.00;99.90
736;DHT22;352;48.626;9.238;2023-04-28T13:57:02;19.00;99.90
736;DHT22;352;48.626;9.238;2023-04-28T13:59:29;18.90;99.90
736;DHT22;352;48.626;9.238;2023-04-28T14:01:56;18.90;99.90
736;DHT22;352;48.626;9.238;2023-04-28T14:04:23;18.80;99.90
736;DHT22;352;48.626;9.238;2023-04-28T14:06:51;18.80;99.90
736;DHT22;352;48.626;9.238;2023-04-28T14:09:19;18.70;99.90
736;DHT22;352;48.626;9.238;2023-04-28T14:11:45;18.70;99.90
736;DHT22;352;48.626;9.238;2023-04-28T14:14:12;18.70;99.90
736;DHT22;352;48.626;9.238;2023-04-28T14:16:39;18.70;99.90
736;DHT22;352;48.626;9.238;2023-04-28T14:19:06;18.70;99.90
736;DHT22;352;48.626;9.238;2023-04-28T14:21:33;18.70;99.90
736;DHT22;352;48.626;9.238;2023-04-28T14:24:00;18.70;99.90
736;DHT22;352;48.626;9.238;2023-04-28T14:26:28;18.70;99.90
736;DHT22;352;48.626;9.238;2023-04-28T14:28:54;18.60;99.90
736;DHT22;352;48.626;9.238;2023-04-28T14:31:21;18.60;99.90
736;DHT22;352;48.626;9.238;2023-04-28T14:33:48;18.50;99.90
736;DHT22;352;48.626;9.238;2023-04-28T14:36:15;18.50;99.90
736;DHT22;352;48.626;9.238;2023-04-28T14:38:41;18.40;99.90
736;DHT22;352;48.626;9.238;2023-04-28T14:41:08;18.30;99.90
736;DHT22;352;48.626;9.238;2023-04-28T14:43:37;18.30;99.90
736;DHT22;352;48.626;9.238;2023-04-28T14:46:04;18.10;99.90
736;DHT22;352;48.626;9.238;2023-04-28T14:48:31;18.00;99.90
736;DHT22;352;48.626;9.238;2023-04-28T14:50:57;18.00;99.90
736;DHT22;352;48.626;9.238;2023-04-28T14:53:24;17.90;99.90
736;DHT22;352;48.626;9.238;2023-04-28T14:55:51;17.90;99.90
736;DHT22;352;48.626;9.238;2023-04-28T14:58:18;17.90;99.90
736;DHT22;352;48.626;9.238;2023-04-28T15:00:46;17.90;99.90
736;DHT22;352;48.626;9.238;2023-04-28T15:03:13;17.90;99.90
736;DHT22;352;48.626;9.238;2023-04-28T15:05:40;17.90;99.90
736;DHT22;352;48.626;9.238;2023-04-28T15:08:07;17.90;99.90
736;DHT22;352;48.626;9.238;2023-04-28T15:10:37;17.80;99.90
736;DHT22;352;48.626;9.238;2023-04-28T15:13:05;17.80;99.90
736;DHT22;352;48.626;9.238;2023-04-28T15:15:33;17.70;99.90
736;DHT22;352;48.626;9.238;2023-04-28T15:18:01;17.70;99.90
736;DHT22;352;48.626;9.238;2023-04-28T15:20:29;17.60;99.90
736;DHT22;352;48.626;9.238;2023-04-28T15:22:57;17.60;99.90
736;DHT22;352;48.626;9.238;2023-04-28T15:25:24;17.70;99.90
736;DHT22;352;48.626;9.238;2023-04-28T15:27:51;17.60;99.90
736;DHT22;352;48.626;9.238;2023-04-28T15:30:18;17.60;99.90
736;DHT22;352;48.626;9.238;2023-04-28T15:32:45;17.70;99.90
736;DHT22;352;48.626;9.238;2023-04-28T15:35:13;17.70;99.90
736;DHT22;352;48.626;9.238;2023-04-28T15:37:44;17.60;99.90
736;DHT22;352;48.626;9.238;2023-04-28T15:40:13;17.60;99.90
736;DHT22;352;48.626;9.238;2023-04-28T15:42:40;17.60;99.90
736;DHT22;352;48.626;9.238;2023-04-28T15:45:13;17.60;99.90
736;DHT22;352;48.626;9.238;2023-04-28T15:47:40;17.60;99.90
736;DHT22;352;48.626;9.238;2023-04-28T15:50:08;17.60;99.90
736;DHT22;352;48.626;9.238;2023-04-28T15:52:38;17.50;99.90
736;DHT22;352;48.626;9.238;2023-04-28T15:55:10;17.50;99.90
736;DHT22;352;48.626;9.238;2023-04-28T15:57:37;17.50;99.90
736;DHT22;352;48.626;9.238;2023-04-28T16:00:05;17.40;99.90
736;DHT22;352;48.626;9.238;2023-04-28T16:02:33;17.40;99.90
736;DHT22;352;48.626;9.238;2023-04-28T16:05:00;17.50;99.90
736;DHT22;352;48.626;9.238;2023-04-28T16:07:28;17.50;99.90
736;DHT22;352;48.626;9.238;2023-04-28T16:10:03;17.50;99.90
736;DHT22;352;48.626;9.238;2023-04-28T16:12:30;17.50;99.90
736;DHT22;352;48.626;9.238;2023-04-28T16:14:58;17.50;99.90
736;DHT22;352;48.626;9.238;2023-04-28T16:17:25;17.40;99.90
736;DHT22;352;48.626;9.238;2023-04-28T16:19:53;17.40;99.90
736;DHT22;352;48.626;9.238;2023-04-28T16:22:20;17.40;99.90
736;DHT22;352;48.626;9.238;2023-04-28T16:24:47;17.40;99.90
736;DHT22;352;48.626;9.238;2023-04-28T16:27:16;17.30;99.90
736;DHT22;352;48.626;9.238;2023-04-28T16:29:42;17.20;99.90
736;DHT22;352;48.626;9.238;2023-04-28T16:32:10;17.20;99.90
736;DHT22;352;48.626;9.238;2023-04-28T16:34:37;17.20;99.90
736;DHT22;352;48.626;9.238;2023-04-28T16:37:04;17.20;99.90
736;DHT22;352;48.626;9.238;2023-04-28T16:39:31;17.20;99.90
736;DHT22;352;48.626;9.238;2023-04-28T16:41:58;17.20;99.90
736;DHT22;352;48.626;9.238;2023-04-28T16:44:27;17.20;99.90